Time;durP1;ratioP1;P1;durP2;ratioP2;P2;SDS_P1;SDS_P2;PMS_P1;PMS_P2;Temp;Humidity;BMP_temperature;BMP_pressure;BME280_temperature;BME280_humidity;BME280_pressure;Samples;Min_cycle;Max_cycle;Signal;HPM_P1;HPM_P2
2023/10/10 00:02:18;;;;;;;15.05;10.30;;;;;;;-143.29;100.00;62188.47;5055975;28;20089;-92
2023/10/10 00:04:44;;;;;;;15.70;10.48;;;;;;;-143.29;100.00;62188.47;5071668;28;20031;-92
2023/10/10 00:07:11;;;;;;;16.63;11.63;;;;;;;-143.29;100.00;62188.47;5045578;28;20384;-92
2023/10/10 00:09:37;;;;;;;16.95;11.68;;;;;;;-143.29;100.00;62188.47;5031768;28;20030;-92
2023/10/10 00:12:03;;;;;;;17.52;11.13;;;;;;;-143.29;100.00;62188.47;5031527;28;20029;-91
2023/10/10 00:14:29;;;;;;;19.48;12.10;;;;;;;-143.29;100.00;62188.47;5031625;28;20049;-92
2023/10/10 00:16:55;;;;;;;18.05;12.20;;;;;;;-143.29;100.00;62188.47;5037683;28;20060;-91
2023/10/10 00:21:53;;;;;;;19.65;12.77;;;;;;;-143.29;100.00;62188.47;5051556;28;20120;-91
2023/10/10 00:24:37;;;;;;;16.08;11.48;;;;;;;-143.29;100.00;62188.47;5033633;28;20036;-92
2023/10/10 00:27:12;;;;;;;19.23;12.80;;;;;;;-143.29;100.00;62188.47;5051599;28;20291;-91
2023/10/10 00:29:42;;;;;;;18.55;11.75;;;;;;;-143.29;100.00;62188.47;5051521;28;20029;-92
2023/10/10 00:32:13;;;;;;;20.67;12.18;;;;;;;-143.29;100.00;62188.47;5050426;28;20025;-92
2023/10/10 00:34:39;;;;;;;20.45;12.88;;;;;;;-143.29;100.00;62188.47;5033698;28;20124;-91
2023/10/10 00:37:08;;;;;;;19.73;11.73;;;;;;;-143.29;100.00;62188.47;5051449;28;20029;-92
2023/10/10 00:39:37;;;;;;;17.65;11.65;;;;;;;-143.29;100.00;62188.47;5051152;28;20033;-92
2023/10/10 00:42:08;;;;;;;18.48;11.48;;;;;;;-143.29;100.00;62188.47;5051137;28;20017;-91
2023/10/10 00:44:37;;;;;;;17.35;11.43;;;;;;;-143.29;100.00;62188.47;5033309;28;20100;-91
2023/10/10 00:47:04;;;;;;;23.38;13.38;;;;;;;-143.29;100.00;62188.47;5061204;28;20029;-91
2023/10/10 00:49:34;;;;;;;17.02;11.25;;;;;;;-143.29;100.00;62188.47;5071365;28;20020;-92
2023/10/10 00:52:02;;;;;;;16.63;11.13;;;;;;;-143.29;100.00;62188.47;5053240;28;20029;-91
2023/10/10 00:54:31;;;;;;;16.38;10.30;;;;;;;-143.29;100.00;62188.47;5053254;28;20545;-91
2023/10/10 00:56:59;;;;;;;16.25;11.40;;;;;;;-143.29;100.00;62188.47;5053110;28;20021;-91
2023/10/10 00:59:29;;;;;;;14.35;10.40;;;;;;;-143.29;100.00;62188.47;5053127;28;20035;-92
2023/10/10 01:01:54;;;;;;;18.45;11.88;;;;;;;-143.29;100.00;62188.47;5056622;28;20025;-91
2023/10/10 01:04:35;;;;;;;21.55;12.50;;;;;;;-143.29;100.00;62188.47;5033353;28;20029;-91
2023/10/10 01:07:03;;;;;;;17.52;11.90;;;;;;;-143.29;100.00;62188.47;5050875;28;20479;-92
2023/10/10 01:09:55;;;;;;;16.63;11.52;;;;;;;-143.29;100.00;62188.47;5053760;28;20059;-92
2023/10/10 01:12:22;;;;;;;;;;;;;;;-143.29;100.00;62188.47;5055252;28;20021;-91
2023/10/10 01:14:54;;;;;;;16.48;11.82;;;;;;;-143.29;100.00;62188.47;5054098;28;19917;-91
2023/10/10 01:17:19;;;;;;;;;;;;;;;-143.29;100.00;62188.47;5054151;28;20040;-92
2023/10/10 01:19:45;;;;;;;18.55;11.93;;;;;;;-143.29;100.00;62188.47;5054176;28;19917;-92
2023/10/10 01:22:22;;;;;;;19.08;11.93;;;;;;;-143.29;100.00;62188.47;5054287;28;20495;-91
2023/10/10 01:24:52;;;;;;;19.17;11.90;;;;;;;-143.29;100.00;62188.47;5054315;28;20036;-92
2023/10/10 01:27:21;;;;;;;19.30;13.10;;;;;;;-143.29;100.00;62188.47;5036153;28;20450;-91
2023/10/10 01:30:00;;;;;;;17.83;12.18;;;;;;;-143.29;100.00;62188.47;5054312;28;20526;-91
2023/10/10 01:32:26;;;;;;;19.05;11.90;;;;;;;-143.29;100.00;62188.47;5016646;28;20029;-91
2023/10/10 01:34:51;;;;;;;17.00;12.27;;;;;;;-143.29;100.00;62188.47;5034780;28;20487;-92
2023/10/10 01:40:17;;;;;;;17.70;10.20;;;;;;;-143.29;100.00;62188.47;5054092;28;20061;-92
2023/10/10 01:42:53;;;;;;;17.88;11.88;;;;;;;-143.29;100.00;62188.47;5054120;28;20053;-91
2023/10/10 01:45:19;;;;;;;23.13;14.65;;;;;;;-143.29;100.00;62188.47;5036402;28;20108;-92
2023/10/10 01:47:56;;;;;;;23.45;14.45;;;;;;;-143.29;100.00;62188.47;5054093;28;20884;-91
2023/10/10 01:50:26;;;;;;;17.08;11.70;;;;;;;-143.29;100.00;62188.47;5054069;28;20033;-91
2023/10/10 01:52:55;;;;;;;19.23;12.38;;;;;;;-143.29;100.00;62188.47;5035933;28;20020;-91
2023/10/10 01:55:24;;;;;;;18.88;12.70;;;;;;;-143.29;100.00;62188.47;5054058;28;20430;-92
2023/10/10 01:57:49;;;;;;;20.45;13.13;;;;;;;-143.29;100.00;62188.47;5054020;28;20091;-91
2023/10/10 02:02:50;;;;;;;19.55;13.30;;;;;;;-143.29;100.00;62188.47;5053892;28;20037;-91
2023/10/10 02:05:41;;;;;;;20.67;13.07;;;;;;;-143.29;100.00;62188.47;5053895;28;20368;-92
2023/10/10 02:08:11;;;;;;;23.25;14.48;;;;;;;-143.29;100.00;62188.47;5054006;28;20483;-90
2023/10/10 02:10:43;;;;;;;21.80;13.63;;;;;;;-143.29;100.00;62188.47;5035924;28;20037;-91
2023/10/10 02:13:11;;;;;;;23.02;15.07;;;;;;;-143.29;100.00;62188.47;5053477;28;20021;-90
2023/10/10 02:15:39;;;;;;;21.15;13.05;;;;;;;-143.29;100.00;62188.47;5034824;28;20055;-92
2023/10/10 02:18:06;;;;;;;19.15;14.10;;;;;;;-143.29;100.00;62188.47;5053689;28;20033;-92
2023/10/10 02:28:03;;;;;;;23.10;15.45;;;;;;;-143.29;100.00;62188.47;5053499;28;20029;-92
2023/10/10 02:30:35;;;;;;;19.70;13.70;;;;;;;-143.29;100.00;62188.47;5052644;28;20097;-92
2023/10/10 02:35:56;;;;;;;25.17;15.80;;;;;;;-143.29;100.00;62188.47;5052565;28;20029;-92
2023/10/10 02:38:31;;;;;;;22.55;14.68;;;;;;;-143.29;100.00;62188.47;5052155;28;20039;-92
2023/10/10 02:41:15;;;;;;;20.88;14.45;;;;;;;-143.29;100.00;62188.47;5035472;28;20040;-92
2023/10/10 02:43:46;;;;;;;22.75;14.65;;;;;;;-143.29;100.00;62188.47;5052812;28;20029;-91
2023/10/10 02:46:18;;;;;;;25.13;15.45;;;;;;;-143.29;100.00;62188.47;5051458;28;20107;-91
2023/10/10 02:48:53;;;;;;;18.95;14.77;;;;;;;-143.29;100.00;62188.47;5058152;28;20029;-91
2023/10/10 02:51:20;;;;;;;23.90;15.50;;;;;;;-143.29;100.00;62188.47;5053478;28;20414;-91
2023/10/10 02:53:46;;;;;;;21.25;13.55;;;;;;;-143.29;100.00;62188.47;5052659;28;20029;-91
2023/10/10 02:56:18;;;;;;;19.17;12.90;;;;;;;-143.29;100.00;62188.47;5052660;28;20104;-92
2023/10/10 02:58:45;;;;;;;23.00;14.07;;;;;;;-143.29;100.00;62188.47;5053099;28;20112;-91
2023/10/10 03:01:30;;;;;;;21.45;14.20;;;;;;;-143.29;100.00;62188.47;5034834;28;20538;-91
2023/10/10 03:03:55;;;;;;;20.00;13.93;;;;;;;-143.29;100.00;62188.47;5034052;28;20128;-92
2023/10/10 03:06:28;;;;;;;20.90;15.65;;;;;;;-143.29;100.00;62188.47;5052984;28;20107;-91
2023/10/10 03:09:06;;;;;;;21.85;14.43;;;;;;;-143.29;100.00;62188.47;5052510;28;20103;-91
2023/10/10 03:11:35;;;;;;;21.95;13.18;;;;;;;-143.29;100.00;62188.47;5034639;28;20483;-92
2023/10/10 03:14:07;;;;;;;22.23;14.52;;;;;;;-143.29;100.00;62188.47;5052299;28;20094;-92
2023/10/10 03:16:45;;;;;;;18.63;14.10;;;;;;;-143.29;100.00;62188.47;5034458;28;20115;-91
2023/10/10 03:29:21;;;;;;;24.25;13.00;;;;;;;-143.29;100.00;62188.47;5050769;28;20055;-91
2023/10/10 03:32:19;;;;;;;16.58;11.45;;;;;;;-143.29;100.00;62188.47;5030052;28;20026;-91
2023/10/10 03:34:44;;;;;;;17.52;13.35;;;;;;;-143.29;100.00;62188.47;5032036;28;20021;-91
2023/10/10 05:24:29;;;;;;;20.15;14.07;;;;;;;-143.29;100.00;62188.47;5052646;28;20094;-92
2023/10/10 05:26:56;;;;;;;23.95;15.68;;;;;;;-143.29;100.00;62188.47;5052087;28;20025;-92
2023/10/10 05:29:24;;;;;;;23.42;14.40;;;;;;;-143.29;100.00;62188.47;5054121;28;20025;-92
2023/10/10 05:31:51;;;;;;;17.15;12.07;;;;;;;-143.29;100.00;62188.47;5054180;28;20021;-91
2023/10/10 05:34:18;;;;;;;26.83;13.07;;;;;;;-143.29;100.00;62188.47;5053744;28;20076;-91
2023/10/10 05:36:46;;;;;;;19.17;13.57;;;;;;;-143.29;100.00;62188.47;5035747;28;20021;-91
2023/10/10 05:39:17;;;;;;;18.00;12.82;;;;;;;-143.29;100.00;62188.47;5054103;28;20027;-91
2023/10/10 05:41:47;;;;;;;16.90;11.52;;;;;;;-143.29;100.00;62188.47;5053523;28;20047;-91
2023/10/10 05:44:16;;;;;;;22.23;12.02;;;;;;;-143.29;100.00;62188.47;5054105;28;20508;-93
2023/10/10 05:46:42;;;;;;;14.60;11.05;;;;;;;-143.29;100.00;62188.47;5052681;28;20069;-91
2023/10/10 05:49:07;;;;;;;14.68;12.68;;;;;;;-143.29;100.00;62188.47;5053808;28;20061;-93
2023/10/10 05:51:33;;;;;;;15.48;12.15;;;;;;;-143.29;100.00;62188.47;5034679;28;20423;-92
2023/10/10 05:53:58;;;;;;;54.05;10.85;;;;;;;-143.29;100.00;62188.47;5053611;28;20035;-92
2023/10/10 05:56:24;;;;;;;12.38;8.85;;;;;;;-143.29;100.00;62188.47;5053587;28;20032;-91
2023/10/10 05:58:49;;;;;;;9.13;7.57;;;;;;;-143.29;100.00;62188.47;5053462;28;20025;-92
2023/10/10 06:01:14;;;;;;;7.65;6.90;;;;;;;-143.29;100.00;62188.47;5041536;28;20025;-90
2023/10/10 06:03:42;;;;;;;7.43;6.53;;;;;;;-143.29;100.00;62188.47;5062498;28;20021;-90
2023/10/10 06:06:12;;;;;;;14.13;9.35;;;;;;;-143.29;100.00;62188.47;5035723;28;20043;-91
2023/10/10 06:08:38;;;;;;;25.77;9.82;;;;;;;-143.29;100.00;62188.47;5034082;28;20029;-91
2023/10/10 06:11:04;;;;;;;49.35;10.05;;;;;;;-143.29;100.00;62188.47;5052779;28;20541;-89
2023/10/10 06:13:30;;;;;;;20.40;9.07;;;;;;;-143.29;100.00;62188.47;5053319;28;20033;-91
2023/10/10 06:16:05;;;;;;;53.08;9.02;;;;;;;-143.29;100.00;62188.47;5051353;28;20501;-91
2023/10/10 06:18:31;;;;;;;55.15;12.07;;;;;;;-143.29;100.00;62188.47;5066554;28;20103;-92
2023/10/10 06:21:02;;;;;;;45.05;11.80;;;;;;;-143.29;100.00;62188.47;5053432;28;20107;-91
2023/10/10 06:23:33;;;;;;;40.10;14.23;;;;;;;-143.29;100.00;62188.47;5053530;28;20448;-91
2023/10/10 06:25:59;;;;;;;36.83;14.00;;;;;;;-143.29;100.00;62188.47;5053286;28;20027;-91
2023/10/10 06:28:26;;;;;;;21.45;15.18;;;;;;;-143.29;100.00;62188.47;5053616;28;20104;-90
2023/10/10 06:30:55;;;;;;;27.38;14.68;;;;;;;-143.29;100.00;62188.47;5051878;28;20029;-91
2023/10/10 06:33:27;;;;;;;17.65;14.65;;;;;;;-143.29;100.00;62188.47;5052099;28;20036;-90
2023/10/10 06:36:32;;;;;;;114.68;19.40;;;;;;;-143.29;100.00;62188.47;5052678;28;20025;-91
2023/10/10 06:41:40;;;;;;;66.70;18.95;;;;;;;-143.29;100.00;62188.47;5053104;28;20145;-93
2023/10/10 06:44:17;;;;;;;57.08;17.92;;;;;;;-143.29;100.00;62188.47;5050216;28;20072;-91
2023/10/10 06:46:49;;;;;;;26.35;17.17;;;;;;;-143.29;100.00;62188.47;5052260;28;20052;-91
2023/10/10 06:49:14;;;;;;;18.52;15.82;;;;;;;-143.29;100.00;62188.47;5052383;28;20044;-92
2023/10/10 06:51:40;;;;;;;17.70;14.93;;;;;;;-143.29;100.00;62188.47;5034744;28;20033;-90
2023/10/10 06:54:19;;;;;;;50.50;17.45;;;;;;;-143.29;100.00;62188.47;5052701;28;20037;-89
2023/10/10 06:57:04;;;;;;;61.95;18.70;;;;;;;-143.29;100.00;62188.47;5052877;28;20025;-91
2023/10/10 06:59:30;;;;;;;21.17;16.52;;;;;;;-143.29;100.00;62188.47;5053930;28;20032;-89
2023/10/10 07:01:59;;;;;;;19.67;15.80;;;;;;;-143.29;100.00;62188.47;5052159;28;20387;-89
2023/10/10 07:04:27;;;;;;;22.25;17.15;;;;;;;-143.29;100.00;62188.47;5052668;28;20017;-90
2023/10/10 07:06:54;;;;;;;59.65;18.30;;;;;;;-143.29;100.00;62188.47;5051798;28;20025;-89
2023/10/10 07:09:29;;;;;;;20.42;16.42;;;;;;;-143.29;100.00;62188.47;5052717;28;20103;-89
2023/10/10 07:12:13;;;;;;;23.17;16.75;;;;;;;-143.29;100.00;62188.47;5065375;28;20502;-90
2023/10/10 07:14:43;;;;;;;21.90;16.33;;;;;;;-143.29;100.00;62188.47;5036828;28;20442;-89
2023/10/10 07:17:11;;;;;;;24.55;17.63;;;;;;;-143.29;100.00;62188.47;5052248;28;20521;-90
2023/10/10 07:22:35;;;;;;;23.73;17.48;;;;;;;-143.29;100.00;62188.47;5072501;28;20025;-93
2023/10/10 07:25:31;;;;;;;21.55;15.80;;;;;;;-143.29;100.00;62188.47;5069084;28;20029;-90
2023/10/10 07:27:57;;;;;;;59.40;18.80;;;;;;;-143.29;100.00;62188.47;5032277;28;20032;-90
2023/10/10 07:30:33;;;;;;;28.65;17.63;;;;;;;-143.29;100.00;62188.47;5063259;28;20111;-89
2023/10/10 07:33:02;;;;;;;36.97;18.02;;;;;;;-143.29;100.00;62188.47;5071937;28;20028;-89
2023/10/10 07:35:28;;;;;;;24.08;17.20;;;;;;;-143.29;100.00;62188.47;5071465;28;20024;-90
2023/10/10 07:37:58;;;;;;;86.72;21.30;;;;;;;-143.29;100.00;62188.47;5072074;28;20035;-89
2023/10/10 07:40:30;;;;;;;95.13;21.55;;;;;;;-143.29;100.00;62188.47;5071871;28;20475;-89
2023/10/10 07:43:03;;;;;;;82.70;20.38;;;;;;;-143.29;100.00;62188.47;5070782;28;20127;-90
2023/10/10 07:45:52;;;;;;;38.53;20.17;;;;;;;-143.29;100.00;62188.47;5068650;28;20496;-90
2023/10/10 07:50:49;;;;;;;51.78;19.88;;;;;;;-143.29;100.00;62188.47;5071957;28;20029;-88
2023/10/10 07:53:16;;;;;;;33.03;20.27;;;;;;;-143.29;100.00;62188.47;5055564;28;20055;-89
2023/10/10 07:56:00;;;;;;;31.52;20.92;;;;;;;-143.29;100.00;62188.47;5051738;28;20029;-89
2023/10/10 07:59:12;;;;;;;27.55;18.98;;;;;;;-143.29;100.00;62188.47;5054002;28;20095;-89
2023/10/10 08:01:16;;;;;;;88.68;25.65;;;;;;;-143.29;100.00;62188.47;5059750;28;20040;-89
2023/10/10 08:03:44;;;;;;;77.00;24.33;;;;;;;-143.29;100.00;62188.47;5071668;28;20083;-89
2023/10/10 08:06:10;;;;;;;44.13;21.83;;;;;;;-143.29;100.00;62188.47;5070857;28;20024;-89
2023/10/10 08:08:36;;;;;;;33.42;20.75;;;;;;;-143.29;100.00;62188.47;5050968;28;20512;-91
2023/10/10 08:11:12;;;;;;;33.42;21.65;;;;;;;-143.29;100.00;62188.47;5051599;28;20064;-91
2023/10/10 08:13:39;;;;;;;28.15;19.90;;;;;;;-143.29;100.00;62188.47;5050204;28;20111;-91
2023/10/10 08:16:04;;;;;;;31.60;19.05;;;;;;;-143.29;100.00;62188.47;5050818;28;20021;-92
2023/10/10 08:18:52;;;;;;;23.70;17.27;;;;;;;-143.29;100.00;62188.47;5050838;28;20029;-92
2023/10/10 08:21:15;;;;;;;28.70;18.38;;;;;;;-143.29;100.00;62188.47;5051178;28;20041;-92
2023/10/10 08:23:46;;;;;;;40.88;21.88;;;;;;;-143.29;100.00;62188.47;5051407;28;20029;-89
2023/10/10 08:26:18;;;;;;;44.95;24.55;;;;;;;-143.29;100.00;62188.47;5051432;28;20029;-89
2023/10/10 08:28:50;;;;;;;43.67;26.27;;;;;;;-143.29;100.00;62188.47;5050628;28;20075;-90
2023/10/10 08:31:16;;;;;;;;;;;;;;;-143.29;100.00;62188.47;5060645;28;20029;-90
2023/10/10 08:33:46;;;;;;;47.15;25.13;;;;;;;-143.29;100.00;62188.47;5064653;28;19973;-90
2023/10/10 08:36:19;;;;;;;52.78;26.65;;;;;;;-143.29;100.00;62188.47;5068293;28;20379;-90
2023/10/10 08:38:45;;;;;;;43.88;26.65;;;;;;;-143.29;100.00;62188.47;5033397;28;20036;-90
2023/10/10 08:41:10;;;;;;;48.10;26.48;;;;;;;-143.29;100.00;62188.47;5051099;28;20021;-91
2023/10/10 08:43:45;;;;;;;44.95;26.92;;;;;;;-143.29;100.00;62188.47;5033400;28;20040;-91
2023/10/10 08:46:13;;;;;;;50.80;26.10;;;;;;;-143.29;100.00;62188.47;5033092;28;20033;-92
2023/10/10 08:48:40;;;;;;;48.35;25.52;;;;;;;-143.29;100.00;62188.47;5033239;28;20047;-92
2023/10/10 08:51:05;;;;;;;47.35;26.80;;;;;;;-143.29;100.00;62188.47;5057069;28;20028;-92
2023/10/10 08:53:36;;;;;;;42.78;25.65;;;;;;;-143.29;100.00;62188.47;5070929;28;20036;-92
2023/10/10 08:56:03;;;;;;;46.83;27.52;;;;;;;-143.29;100.00;62188.47;5071006;28;20024;-92
2023/10/10 08:58:31;;;;;;;46.35;27.48;;;;;;;-143.29;100.00;62188.47;5062847;28;20076;-92
2023/10/10 09:01:00;;;;;;;46.78;27.15;;;;;;;-143.29;100.00;62188.47;5030240;28;20033;-90
2023/10/10 09:03:26;;;;;;;43.50;26.20;;;;;;;-143.29;100.00;62188.47;5030951;28;20030;-90
2023/10/10 09:05:52;;;;;;;45.00;25.63;;;;;;;-143.29;100.00;62188.47;5040264;28;20021;-90
2023/10/10 09:08:19;;;;;;;43.75;26.23;;;;;;;-143.29;100.00;62188.47;5050832;28;20104;-90
2023/10/10 09:10:46;;;;;;;48.15;24.80;;;;;;;-143.29;100.00;62188.47;5050294;28;20033;-90
2023/10/10 09:13:11;;;;;;;50.08;27.48;;;;;;;-143.29;100.00;62188.47;5033120;28;20083;-92
2023/10/10 09:15:40;;;;;;;43.97;26.15;;;;;;;-143.29;100.00;62188.47;5032033;28;20025;-92
2023/10/10 09:18:17;;;;;;;43.47;25.02;;;;;;;-143.29;100.00;62188.47;5049196;28;20029;-92
2023/10/10 09:20:46;;;;;;;43.05;26.67;;;;;;;-143.29;100.00;62188.47;5049797;28;20447;-91
2023/10/10 09:23:24;;;;;;;49.75;27.70;;;;;;;-143.29;100.00;62188.47;5050931;28;20383;-91
2023/10/10 09:26:09;;;;;;;47.40;25.40;;;;;;;-143.29;100.00;62188.47;5032967;28;20021;-92
2023/10/10 09:28:49;;;;;;;51.10;25.65;;;;;;;-143.29;100.00;62188.47;5057157;28;20058;-91
2023/10/10 09:31:31;;;;;;;52.67;25.67;;;;;;;-143.29;100.00;62188.47;5074491;28;20033;-92
2023/10/10 09:34:02;;;;;;;42.17;24.35;;;;;;;-143.29;100.00;62188.47;5056215;28;20398;-91
2023/10/10 09:36:28;;;;;;;46.25;24.92;;;;;;;-143.29;100.00;62188.47;5074284;28;20133;-89
2023/10/10 09:38:55;;;;;;;41.25;23.30;;;;;;;-143.29;100.00;62188.47;5074399;28;20530;-90
2023/10/10 09:41:36;;;;;;;40.05;23.08;;;;;;;-143.29;100.00;62188.47;5056372;28;20029;-90
2023/10/10 09:49:43;;;;;;;32.20;19.02;;;;;;;-143.29;100.00;62188.47;5053817;28;20119;-90
2023/10/10 09:57:44;;;;;;;39.00;23.05;;;;;;;-143.29;100.00;62188.47;5054398;28;20025;-90
2023/10/10 10:00:13;;;;;;;40.03;21.85;;;;;;;-143.29;100.00;62188.47;5053088;28;20429;-90
2023/10/10 10:02:43;;;;;;;37.15;21.90;;;;;;;-143.29;100.00;62188.47;5053685;28;20025;-90
2023/10/10 10:05:21;;;;;;;39.47;21.67;;;;;;;-143.29;100.00;62188.47;5053939;28;20049;-90
2023/10/10 10:07:58;;;;;;;38.40;22.25;;;;;;;-143.29;100.00;62188.47;5053953;28;20029;-90
2023/10/10 10:10:48;;;;;;;41.53;22.83;;;;;;;-143.29;100.00;62188.47;5064326;28;20025;-91
2023/10/10 10:13:48;;;;;;;37.03;19.30;;;;;;;-143.29;100.00;62188.47;5073608;28;20025;-90
2023/10/10 10:16:25;;;;;;;31.30;19.42;;;;;;;-143.29;100.00;62188.47;5073771;28;20355;-90
2023/10/10 10:18:52;;;;;;;33.80;19.10;;;;;;;-143.29;100.00;62188.47;5073627;28;20020;-90
2023/10/10 10:21:30;;;;;;;34.88;18.73;;;;;;;-143.29;100.00;62188.47;5073990;28;20025;-90
2023/10/10 10:24:15;;;;;;;27.88;17.02;;;;;;;-143.29;100.00;62188.47;5070506;28;20044;-90
2023/10/10 10:26:44;;;;;;;25.35;15.98;;;;;;;-143.29;100.00;62188.47;5053672;28;20529;-90
2023/10/10 10:29:28;;;;;;;23.48;15.48;;;;;;;-143.29;100.00;62188.47;5054200;28;20033;-90
2023/10/10 10:31:59;;;;;;;28.83;17.13;;;;;;;-143.29;100.00;62188.47;5055790;28;20371;-91
2023/10/10 10:34:31;;;;;;;25.45;14.85;;;;;;;-143.29;100.00;62188.47;5055725;28;20039;-90
2023/10/10 10:37:06;;;;;;;26.67;15.63;;;;;;;-143.29;100.00;62188.47;5055517;28;20124;-91
2023/10/10 10:39:35;;;;;;;24.88;14.20;;;;;;;-143.29;100.00;62188.47;5073576;28;20032;-90
2023/10/10 10:42:01;;;;;;;28.13;15.23;;;;;;;-143.29;100.00;62188.47;5072255;28;20021;-90
2023/10/10 10:47:45;;;;;;;22.05;14.05;;;;;;;-143.29;100.00;62188.47;5073582;28;20450;-90
2023/10/10 10:50:29;;;;;;;24.15;14.13;;;;;;;-143.29;100.00;62188.47;5069833;28;20021;-90
2023/10/10 10:53:00;;;;;;;23.13;14.32;;;;;;;-143.29;100.00;62188.47;5073775;28;20036;-90
2023/10/10 10:55:29;;;;;;;25.30;14.30;;;;;;;-143.29;100.00;62188.47;5073195;28;20034;-90
2023/10/10 10:58:20;;;;;;;21.02;13.95;;;;;;;-143.29;100.00;62188.47;5066847;28;20024;-90
2023/10/10 11:01:00;;;;;;;20.17;12.25;;;;;;;-143.29;100.00;62188.47;5051933;28;20079;-90
2023/10/10 11:03:37;;;;;;;21.92;13.18;;;;;;;-143.29;100.00;62188.47;5052440;28;20159;-90
2023/10/10 11:06:09;;;;;;;19.88;12.45;;;;;;;-143.29;100.00;62188.47;5056802;28;20025;-90
2023/10/10 11:11:36;;;;;;;19.85;13.63;;;;;;;-143.29;100.00;62188.47;5052807;28;20518;-90
2023/10/10 11:14:29;;;;;;;19.30;11.55;;;;;;;-143.29;100.00;62188.47;5052680;28;20123;-90
2023/10/10 11:16:57;;;;;;;14.55;10.48;;;;;;;-143.29;100.00;62188.47;5052104;28;20043;-90
2023/10/10 11:19:38;;;;;;;19.85;12.20;;;;;;;-143.29;100.00;62188.47;5052297;28;20074;-90
2023/10/10 11:22:12;;;;;;;17.40;10.50;;;;;;;-143.29;100.00;62188.47;5051398;28;20035;-91
2023/10/10 11:24:38;;;;;;;15.82;11.70;;;;;;;-143.29;100.00;62188.47;5052486;28;20078;-90
2023/10/10 11:30:11;;;;;;;15.07;9.60;;;;;;;-143.29;100.00;62188.47;5072426;28;20024;-91
2023/10/10 11:32:45;;;;;;;14.18;10.45;;;;;;;-143.29;100.00;62188.47;5069157;28;20044;-90
2023/10/10 11:35:22;;;;;;;14.60;10.73;;;;;;;-143.29;100.00;62188.47;5072204;28;20040;-91
2023/10/10 11:38:06;;;;;;;13.45;10.07;;;;;;;-143.29;100.00;62188.47;5072261;28;20025;-90
2023/10/10 11:40:31;;;;;;;14.68;10.40;;;;;;;-143.29;100.00;62188.47;5072288;28;20033;-90
2023/10/10 11:42:58;;;;;;;16.27;9.80;;;;;;;-143.29;100.00;62188.47;5069762;28;20025;-91
2023/10/10 11:45:28;;;;;;;12.80;9.65;;;;;;;-143.29;100.00;62188.47;5072201;28;20020;-90
2023/10/10 11:48:05;;;;;;;13.30;10.10;;;;;;;-143.29;100.00;62188.47;5069709;28;20131;-91
2023/10/10 11:50:51;;;;;;;12.55;10.35;;;;;;;-143.29;100.00;62188.47;5072149;28;20411;-90
2023/10/10 11:53:24;;;;;;;13.52;9.30;;;;;;;-143.29;100.00;62188.47;5053567;28;20021;-90
2023/10/10 11:56:01;;;;;;;16.40;10.65;;;;;;;-143.29;100.00;62188.47;5071928;28;20077;-90
2023/10/10 11:58:35;;;;;;;17.27;11.05;;;;;;;-143.29;100.00;62188.47;5071718;28;20079;-90
2023/10/10 12:01:05;;;;;;;15.07;9.77;;;;;;;-143.29;100.00;62188.47;5068890;28;20120;-91
2023/10/10 12:06:19;;;;;;;11.60;8.90;;;;;;;-143.29;100.00;62188.47;5052113;28;20021;-90
2023/10/10 12:08:50;;;;;;;12.40;8.90;;;;;;;-143.29;100.00;62188.47;5051666;28;20116;-90
2023/10/10 12:11:20;;;;;;;12.45;8.68;;;;;;;-143.29;100.00;62188.47;5051818;28;20433;-90
2023/10/10 12:13:46;;;;;;;17.48;8.32;;;;;;;-143.29;100.00;62188.47;5051428;28;20440;-91
2023/10/10 12:16:11;;;;;;;12.65;8.60;;;;;;;-143.29;100.00;62188.47;5050747;28;20498;-90
2023/10/10 12:18:45;;;;;;;15.63;8.00;;;;;;;-143.29;100.00;62188.47;5051615;28;20113;-90
2023/10/10 12:21:18;;;;;;;14.95;8.45;;;;;;;-143.29;100.00;62188.47;5051881;28;20086;-90
2023/10/10 12:23:44;;;;;;;14.23;8.60;;;;;;;-143.29;100.00;62188.47;5051725;28;20044;-91
2023/10/10 12:26:10;;;;;;;14.95;8.00;;;;;;;-143.29;100.00;62188.47;5051595;28;20379;-90
2023/10/10 12:28:35;;;;;;;11.50;7.90;;;;;;;-143.29;100.00;62188.47;5067512;28;20025;-90
2023/10/10 12:31:03;;;;;;;10.23;7.68;;;;;;;-143.29;100.00;62188.47;5071705;28;20078;-90
2023/10/10 12:33:29;;;;;;;15.13;8.98;;;;;;;-143.29;100.00;62188.47;5071838;28;20032;-90
2023/10/10 12:35:56;;;;;;;14.85;8.52;;;;;;;-143.29;100.00;62188.47;5071349;28;20402;-90
2023/10/10 12:38:22;;;;;;;14.55;9.32;;;;;;;-143.29;100.00;62188.47;5071667;28;20021;-90
2023/10/10 12:40:47;;;;;;;9.95;6.60;;;;;;;-143.29;100.00;62188.47;5071506;28;20033;-91
2023/10/10 12:43:13;;;;;;;14.25;8.18;;;;;;;-143.29;100.00;62188.47;5069162;28;20392;-90
2023/10/10 12:45:38;;;;;;;12.38;8.02;;;;;;;-143.29;100.00;62188.47;5071489;28;20031;-90
2023/10/10 12:48:13;;;;;;;13.60;8.82;;;;;;;-143.29;100.00;62188.47;5071492;28;20044;-90
2023/10/10 12:50:39;;;;;;;13.18;8.27;;;;;;;-143.29;100.00;62188.47;5071564;28;20031;-90
2023/10/10 12:53:15;;;;;;;11.40;7.90;;;;;;;-143.29;100.00;62188.47;5064693;28;20044;-91
2023/10/10 12:56:01;;;;;;;9.48;7.03;;;;;;;-143.29;100.00;62188.47;5048898;28;20025;-91
2023/10/10 12:58:30;;;;;;;9.80;7.88;;;;;;;-143.29;100.00;62188.47;5036858;28;20089;-91
2023/10/10 13:00:57;;;;;;;11.27;7.70;;;;;;;-143.29;100.00;62188.47;5053140;28;20085;-91
2023/10/10 13:03:27;;;;;;;10.40;6.82;;;;;;;-143.29;100.00;62188.47;5066924;28;20032;-92
2023/10/10 13:06:00;;;;;;;14.27;7.03;;;;;;;-143.29;100.00;62188.47;5054600;28;20096;-90
2023/10/10 13:08:47;;;;;;;11.10;7.10;;;;;;;-143.29;100.00;62188.47;5036844;28;20032;-91
2023/10/10 13:11:14;;;;;;;11.75;7.20;;;;;;;-143.29;100.00;62188.47;5054076;28;20490;-90
2023/10/10 13:13:56;;;;;;;14.70;6.82;;;;;;;-143.29;100.00;62188.47;5054723;28;20028;-90
2023/10/10 13:19:11;;;;;;;9.35;5.85;;;;;;;-143.29;100.00;62188.47;5054706;28;20468;-90
2023/10/10 13:21:38;;;;;;;10.60;6.97;;;;;;;-143.29;100.00;62188.47;5054479;28;20628;-89
2023/10/10 13:24:09;;;;;;;9.27;5.93;;;;;;;-143.29;100.00;62188.47;5054442;28;20379;-90
2023/10/10 13:26:38;;;;;;;14.60;5.95;;;;;;;-143.29;100.00;62188.47;5069106;28;20032;-91
2023/10/10 13:29:05;;;;;;;10.27;6.00;;;;;;;-143.29;100.00;62188.47;5059944;28;20028;-90
2023/10/10 13:31:31;;;;;;;11.70;5.93;;;;;;;-143.29;100.00;62188.47;5043560;28;20025;-89
2023/10/10 13:33:58;;;;;;;10.40;5.53;;;;;;;-143.29;100.00;62188.47;5053424;28;20048;-90
2023/10/10 13:36:23;;;;;;;12.77;5.82;;;;;;;-143.29;100.00;62188.47;5054292;28;20437;-89
2023/10/10 13:38:51;;;;;;;7.20;5.57;;;;;;;-143.29;100.00;62188.47;5052066;28;20029;-90
2023/10/10 13:41:22;;;;;;;10.38;5.70;;;;;;;-143.29;100.00;62188.47;5036433;28;20025;-90
2023/10/10 13:43:51;;;;;;;10.02;5.93;;;;;;;-143.29;100.00;62188.47;5053382;28;20025;-92
2023/10/10 13:46:20;;;;;;;13.88;6.32;;;;;;;-143.29;100.00;62188.47;5054051;28;20029;-90
2023/10/10 13:48:46;;;;;;;12.63;5.60;;;;;;;-143.29;100.00;62188.47;5053268;28;20032;-90
2023/10/10 13:51:14;;;;;;;9.75;5.60;;;;;;;-143.29;100.00;62188.47;5054223;28;20544;-90
2023/10/10 13:53:44;;;;;;;9.05;6.50;;;;;;;-143.29;100.00;62188.47;5054102;28;20029;-90
2023/10/10 13:56:12;;;;;;;10.70;6.70;;;;;;;-143.29;100.00;62188.47;5054482;28;20025;-90
2023/10/10 13:58:38;;;;;;;7.47;5.72;;;;;;;-143.29;100.00;62188.47;5053425;28;20021;-93
2023/10/10 14:01:52;;;;;;;11.48;6.40;;;;;;;-143.29;100.00;62188.47;5052783;28;20036;-90
2023/10/10 14:03:56;;;;;;;12.23;6.22;;;;;;;-143.29;100.00;62188.47;5045281;28;20128;-90
2023/10/10 14:06:22;;;;;;;;;;;;;;;-143.29;100.00;62188.47;5052867;28;20479;-90